Time;durP1;ratioP1;P1;durP2;ratioP2;P2;SDS_P1;SDS_P2;PMS_P1;PMS_P2;Temp;Humidity;BMP_temperature;BMP_pressure;BME280_temperature;BME280_humidity;BME280_pressure;Samples;Min_cycle;Max_cycle;Signal;HPM_P1;HPM_P2
2023/10/21 00:03:14;;;;;;;6.43;3.88;;;13.50;99.90;;;;;;10407541;28;20461;-64
2023/10/21 00:08:15;;;;;;;5.77;3.80;;;13.50;99.90;;;;;;10422722;28;20407;-64
2023/10/21 00:13:15;;;;;;;4.90;3.77;;;13.50;99.90;;;;;;10407048;28;20466;-65
2023/10/21 00:18:16;;;;;;;5.22;3.55;;;13.80;99.90;;;;;;10412964;28;20403;-65
2023/10/21 00:23:16;;;;;;;4.87;3.60;;;13.50;99.90;;;;;;10407417;28;20474;-64
2023/10/21 00:28:17;;;;;;;4.70;3.50;;;13.60;99.90;;;;;;10411192;28;20416;-63
2023/10/21 00:33:17;;;;;;;5.30;3.53;;;13.60;99.80;;;;;;10411877;28;20509;-65
2023/10/21 00:38:18;;;;;;;5.18;3.90;;;13.60;99.80;;;;;;10402370;28;20427;-64
2023/10/21 00:43:36;;;;;;;4.67;3.20;;;13.80;99.80;;;;;;10410970;28;20772;-64
2023/10/21 00:48:38;;;;;;;5.10;3.50;;;13.50;99.70;;;;;;10404919;28;20435;-65
2023/10/21 00:53:39;;;;;;;4.93;3.27;;;13.60;99.70;;;;;;10426044;28;20485;-64
2023/10/21 00:58:40;;;;;;;4.53;3.30;;;13.60;99.70;;;;;;10418211;28;20408;-65
2023/10/21 01:03:41;;;;;;;5.00;3.50;;;13.50;99.60;;;;;;10409915;28;21076;-64
2023/10/21 01:08:42;;;;;;;4.37;3.47;;;13.60;99.60;;;;;;10431442;28;20470;-63
2023/10/21 01:13:43;;;;;;;5.20;3.42;;;13.60;99.60;;;;;;10412783;28;20424;-64
2023/10/21 01:18:44;;;;;;;4.07;3.33;;;13.50;99.60;;;;;;10417655;28;20402;-65
2023/10/21 01:23:44;;;;;;;4.93;3.13;;;13.50;99.60;;;;;;10405192;28;20897;-65
2023/10/21 01:28:45;;;;;;;4.73;3.23;;;13.50;99.60;;;;;;10411753;28;20792;-64
2023/10/21 01:33:46;;;;;;;3.80;3.30;;;13.50;99.50;;;;;;10416425;28;20444;-64
2023/10/21 01:38:47;;;;;;;4.30;3.00;;;13.50;99.50;;;;;;10402750;28;20425;-64
2023/10/21 01:43:47;;;;;;;4.45;3.30;;;13.50;99.50;;;;;;10412334;28;20907;-65
2023/10/21 01:48:49;;;;;;;4.47;3.07;;;13.70;99.60;;;;;;10412384;28;20826;-63
2023/10/21 01:53:50;;;;;;;3.57;3.00;;;13.50;99.60;;;;;;10405336;28;20420;-64
2023/10/21 01:58:51;;;;;;;4.10;3.30;;;13.50;99.60;;;;;;10411914;28;20428;-65
2023/10/21 02:03:52;;;;;;;6.17;3.40;;;13.50;99.60;;;;;;10407246;28;21066;-64
2023/10/21 02:08:55;;;;;;;4.43;3.43;;;13.50;99.60;;;;;;10418396;28;20405;-65
2023/10/21 02:13:56;;;;;;;3.97;3.00;;;13.50;99.60;;;;;;10400272;28;20428;-65
2023/10/21 02:18:56;;;;;;;3.95;3.15;;;13.50;99.60;;;;;;10407066;28;20419;-64
2023/10/21 02:23:57;;;;;;;4.43;3.13;;;13.50;99.60;;;;;;10404726;28;20556;-64
2023/10/21 02:28:57;;;;;;;4.17;3.07;;;13.50;99.60;;;;;;10401853;28;20469;-65
2023/10/21 02:33:58;;;;;;;4.53;3.40;;;13.50;99.60;;;;;;10409861;28;20497;-65
2023/10/21 02:38:58;;;;;;;5.32;3.50;;;13.50;99.60;;;;;;10407461;28;20726;-64
2023/10/21 02:43:59;;;;;;;5.07;3.27;;;13.50;99.60;;;;;;10410398;28;20417;-64
2023/10/21 02:49:00;;;;;;;5.17;3.60;;;13.50;99.60;;;;;;10406468;28;20402;-64
2023/10/21 02:54:00;;;;;;;6.23;3.80;;;13.50;99.60;;;;;;10399686;28;20395;-64
2023/10/21 02:59:01;;;;;;;5.28;3.42;;;13.50;99.50;;;;;;10403122;28;20432;-65
2023/10/21 03:04:01;;;;;;;4.33;3.60;;;13.60;99.60;;;;;;10402938;28;20791;-65
2023/10/21 03:09:06;;;;;;;4.60;3.80;;;13.50;99.50;;;;;;10406383;28;20399;-64
2023/10/21 03:14:06;;;;;;;5.10;4.03;;;13.50;99.50;;;;;;10398278;28;20434;-64
2023/10/21 03:19:07;;;;;;;4.75;3.65;;;13.50;99.50;;;;;;10406888;28;20488;-63
2023/10/21 03:24:08;;;;;;;5.27;4.07;;;13.50;99.50;;;;;;10397487;28;20882;-64
2023/10/21 03:29:08;;;;;;;7.35;4.22;;;13.50;99.50;;;;;;10402902;28;20537;-65
2023/10/21 03:34:09;;;;;;;5.60;4.07;;;13.50;99.50;;;;;;10406002;28;20494;-64
2023/10/21 03:39:10;;;;;;;5.97;4.30;;;13.50;99.50;;;;;;10408092;28;20421;-65
2023/10/21 03:44:10;;;;;;;5.78;4.13;;;14.30;99.70;;;;;;10410082;28;20405;-65
2023/10/21 03:49:11;;;;;;;6.03;4.30;;;13.50;99.50;;;;;;10402747;28;20406;-64
2023/10/21 03:54:12;;;;;;;5.60;4.40;;;13.50;99.50;;;;;;10408120;28;20415;-64
2023/10/21 03:59:12;;;;;;;7.63;4.60;;;13.50;99.50;;;;;;10405787;28;20885;-64
2023/10/21 04:04:13;;;;;;;7.87;4.70;;;13.50;99.50;;;;;;10414784;28;20888;-64
2023/10/21 04:09:14;;;;;;;5.93;4.75;;;13.50;99.60;;;;;;10399344;28;20916;-64
2023/10/21 04:14:14;;;;;;;8.90;5.00;;;13.50;99.60;;;;;;10401453;28;20411;-64
2023/10/21 04:19:16;;;;;;;7.53;5.20;;;13.50;99.60;;;;;;10407026;28;20410;-64
2023/10/21 04:24:17;;;;;;;6.68;4.63;;;13.60;99.60;;;;;;10394255;28;20410;-65
2023/10/21 04:29:17;;;;;;;8.97;5.03;;;14.00;99.70;;;;;;10404774;28;20777;-64
2023/10/21 04:34:19;;;;;;;6.88;5.07;;;13.50;99.60;;;;;;10402582;28;20956;-65
2023/10/21 04:39:20;;;;;;;7.72;4.95;;;13.50;99.60;;;;;;10399504;28;20554;-64
2023/10/21 04:44:20;;;;;;;6.40;4.70;;;13.50;99.60;;;;;;10402926;28;20938;-64
2023/10/21 04:49:21;;;;;;;6.78;4.65;;;13.50;99.60;;;;;;10407749;28;20434;-65
2023/10/21 04:54:21;;;;;;;7.73;4.80;;;13.50;99.60;;;;;;10407366;28;20952;-65
2023/10/21 04:59:22;;;;;;;7.03;5.00;;;13.50;99.60;;;;;;10421089;28;20618;-65
2023/10/21 05:04:23;;;;;;;7.43;4.80;;;13.50;99.60;;;;;;10407863;28;20419;-65
2023/10/21 05:09:24;;;;;;;7.25;5.10;;;13.50;99.60;;;;;;10409226;28;20416;-64
2023/10/21 05:14:25;;;;;;;8.18;5.22;;;13.50;99.60;;;;;;10404345;28;20518;-64
2023/10/21 05:19:26;;;;;;;7.60;5.20;;;13.50;99.70;;;;;;10415759;28;20557;-65
2023/10/21 05:24:27;;;;;;;6.53;4.80;;;13.50;99.60;;;;;;10411109;28;20485;-64
2023/10/21 05:29:27;;;;;;;7.05;4.95;;;13.60;99.70;;;;;;10419966;28;20422;-64
2023/10/21 05:34:28;;;;;;;6.77;4.60;;;13.50;99.60;;;;;;10413741;28;20399;-65
2023/10/21 05:39:28;;;;;;;6.18;4.90;;;13.50;99.60;;;;;;10413719;28;20433;-64
2023/10/21 05:44:29;;;;;;;6.27;4.57;;;13.60;99.60;;;;;;10406453;28;20423;-64
2023/10/21 05:49:30;;;;;;;6.53;4.33;;;13.60;99.60;;;;;;10413977;28;20475;-64
2023/10/21 05:54:31;;;;;;;7.47;4.70;;;13.50;99.60;;;;;;10410502;28;20414;-65
2023/10/21 05:59:32;;;;;;;5.97;4.65;;;13.60;99.60;;;;;;10414244;28;20508;-64
2023/10/21 06:04:33;;;;;;;6.07;4.50;;;13.60;99.70;;;;;;10392931;28;20413;-65
2023/10/21 06:09:33;;;;;;;5.13;4.20;;;13.60;99.70;;;;;;10385564;28;20415;-65
2023/10/21 06:14:34;;;;;;;6.43;4.33;;;13.60;99.60;;;;;;10394865;28;20807;-66
2023/10/21 06:19:34;;;;;;;5.10;4.17;;;13.60;99.70;;;;;;10391014;28;20751;-64
2023/10/21 06:24:35;;;;;;;6.40;4.32;;;13.50;99.60;;;;;;10406861;28;20420;-65
2023/10/21 06:29:36;;;;;;;6.77;4.40;;;13.60;99.70;;;;;;10389790;28;20432;-64
2023/10/21 06:34:36;;;;;;;5.80;4.30;;;13.60;99.70;;;;;;10402680;28;20409;-64
2023/10/21 06:39:37;;;;;;;5.95;4.45;;;13.60;99.70;;;;;;10392277;28;20644;-64
2023/10/21 06:44:37;;;;;;;6.00;4.50;;;13.60;99.70;;;;;;10412057;28;20493;-65
2023/10/21 06:49:38;;;;;;;5.07;4.13;;;13.60;99.80;;;;;;10401988;28;20508;-65
2023/10/21 06:54:38;;;;;;;6.77;4.40;;;13.60;99.80;;;;;;10404262;28;20405;-64
2023/10/21 06:59:39;;;;;;;6.32;4.20;;;13.60;99.90;;;;;;10405814;28;20411;-64
2023/10/21 07:04:40;;;;;;;6.53;4.55;;;15.00;99.90;;;;;;10390752;28;20503;-65
2023/10/21 07:09:41;;;;;;;5.23;4.03;;;13.60;99.90;;;;;;10384146;28;20512;-65
2023/10/21 07:14:41;;;;;;;5.63;4.00;;;13.70;99.90;;;;;;10396658;28;20415;-64
2023/10/21 07:19:42;;;;;;;6.63;4.43;;;13.70;99.90;;;;;;10400942;28;20472;-64
2023/10/21 07:24:43;;;;;;;6.50;4.40;;;13.70;99.90;;;;;;10405315;28;20405;-65
2023/10/21 07:29:43;;;;;;;6.65;4.55;;;13.70;99.90;;;;;;10399824;28;20787;-65
2023/10/21 07:34:44;;;;;;;5.93;4.40;;;13.70;99.90;;;;;;10405796;28;20458;-65
2023/10/21 07:39:45;;;;;;;6.17;4.07;;;13.70;99.90;;;;;;10397685;28;20810;-65
2023/10/21 07:44:47;;;;;;;7.13;4.78;;;13.80;99.90;;;;;;10408019;28;20461;-64
2023/10/21 07:49:50;;;;;;;5.82;4.68;;;13.80;99.90;;;;;;10407086;28;20420;-64
2023/10/21 07:54:53;;;;;;;5.70;4.40;;;13.80;99.90;;;;;;10403882;28;20410;-65
2023/10/21 07:59:53;;;;;;;5.28;4.03;;;13.80;99.90;;;;;;10400181;28;20409;-65
2023/10/21 08:04:54;;;;;;;5.30;3.80;;;13.90;99.90;;;;;;10402184;28;20413;-64
2023/10/21 08:09:55;;;;;;;6.77;4.63;;;14.00;99.90;;;;;;10404272;28;21023;-65
2023/10/21 08:14:55;;;;;;;6.57;4.10;;;14.00;99.90;;;;;;10404038;28;20404;-65
2023/10/21 08:19:56;;;;;;;7.20;4.20;;;14.10;99.90;;;;;;10402752;28;20470;-69
2023/10/21 08:24:57;;;;;;;7.00;4.22;;;14.20;99.90;;;;;;10409707;28;20421;-63
2023/10/21 08:29:57;;;;;;;7.40;4.40;;;14.30;99.90;;;;;;10415522;28;20577;-64
2023/10/21 08:34:58;;;;;;;8.83;4.73;;;14.40;99.90;;;;;;10416562;28;20484;-69
2023/10/21 08:39:58;;;;;;;12.38;5.03;;;14.60;99.90;;;;;;10416812;28;20422;-67
2023/10/21 08:45:03;;;;;;;11.68;4.60;;;14.70;99.90;;;;;;10388589;28;20779;-67
2023/10/21 08:50:04;;;;;;;8.73;4.60;;;14.50;99.90;;;;;;10407655;28;20985;-67
2023/10/21 08:55:05;;;;;;;8.05;4.68;;;14.60;99.90;;;;;;10410007;28;20485;-67
2023/10/21 09:00:09;;;;;;;7.80;4.10;;;14.60;99.90;;;;;;10424893;28;20426;-67
2023/10/21 09:12:40;;;;;;;6.82;3.78;;;14.20;99.90;;;;;;10391704;27;20444;-73
2023/10/21 09:17:45;;;;;;;8.60;3.90;;;14.30;99.90;;;;;;10388547;28;20517;-73
2023/10/21 09:22:55;;;;;;;7.75;4.03;;;14.80;99.90;;;;;;10387379;28;20419;-71
2023/10/21 09:27:56;;;;;;;6.65;3.30;;;14.30;99.90;;;;;;10204652;28;70105;-70
2023/10/21 09:33:08;;;;;;;7.00;3.20;;;14.30;99.90;;;;;;10315510;28;20937;-70
2023/10/21 09:38:16;;;;;;;4.87;3.00;;;14.30;99.90;;;;;;10346656;28;20417;-70
2023/10/21 09:43:18;;;;;;;3.83;2.78;;;14.30;99.90;;;;;;10347621;28;20404;-71
2023/10/21 09:50:31;;;;;;;5.18;2.80;;;14.40;99.90;;;;;;10289925;27;57488;-64
2023/10/21 09:55:33;;;;;;;3.95;2.70;;;14.50;99.90;;;;;;10381070;28;20459;-64
2023/10/21 10:00:35;;;;;;;3.80;2.40;;;14.50;99.90;;;;;;10309625;28;20401;-64
2023/10/21 10:05:38;;;;;;;2.90;2.30;;;14.60;99.90;;;;;;10397463;27;20517;-64
2023/10/21 10:10:40;;;;;;;3.30;2.10;;;14.60;99.90;;;;;;10439685;28;20905;-65
2023/10/21 10:15:41;;;;;;;2.78;1.90;;;14.70;99.90;;;;;;10277534;28;58253;-63
2023/10/21 10:20:51;;;;;;;4.10;1.90;;;14.80;99.90;;;;;;10370472;28;20548;-64
2023/10/21 10:25:51;;;;;;;3.15;1.40;;;14.80;99.90;;;;;;10437508;28;20975;-67
2023/10/21 10:30:54;;;;;;;2.20;1.13;;;14.80;99.90;;;;;;10442017;28;20503;-67
2023/10/21 10:35:56;;;;;;;1.60;0.93;;;14.90;99.90;;;;;;10433415;28;20429;-67
2023/10/21 10:41:11;;;;;;;2.07;0.93;;;14.20;99.90;;;;;;10436232;28;20472;-67
2023/10/21 10:46:19;;;;;;;3.10;1.30;;;14.90;99.90;;;;;;10436868;28;20414;-68
2023/10/21 10:51:21;;;;;;;2.92;1.05;;;14.80;99.90;;;;;;10439000;28;20412;-68
2023/10/21 10:56:25;;;;;;;1.48;0.90;;;14.70;99.90;;;;;;10436045;28;20472;-68
2023/10/21 11:01:26;;;;;;;1.65;0.80;;;14.70;99.90;;;;;;10408656;28;20411;-67
2023/10/21 11:06:31;;;;;;;1.65;0.90;;;14.60;99.90;;;;;;10406185;28;20419;-67
2023/10/21 11:11:45;;;;;;;1.20;0.50;;;14.70;99.90;;;;;;10426283;28;20416;-67
2023/10/21 11:16:49;;;;;;;1.67;0.50;;;14.60;99.90;;;;;;10405259;28;20461;-67
2023/10/21 11:21:50;;;;;;;1.60;0.60;;;14.60;99.90;;;;;;10408858;28;20419;-68
2023/10/21 11:26:51;;;;;;;2.58;0.90;;;14.70;99.90;;;;;;10416200;28;20436;-69
2023/10/21 11:31:54;;;;;;;3.03;0.80;;;14.70;99.90;;;;;;10410495;28;20409;-69
2023/10/21 11:36:56;;;;;;;2.00;0.70;;;14.70;99.90;;;;;;10349535;28;20442;-68
2023/10/21 11:41:56;;;;;;;1.83;0.77;;;15.50;99.90;;;;;;10413393;28;20500;-69
2023/10/21 11:47:06;;;;;;;2.23;0.80;;;14.80;99.90;;;;;;10405734;28;20426;-67
2023/10/21 11:52:09;;;;;;;1.53;0.73;;;15.10;99.90;;;;;;10412810;28;20511;-67
2023/10/21 12:19:11;;;;;;;1.95;0.70;;;15.50;99.90;;;;;;10407737;28;20423;-68
2023/10/21 12:45:45;;;;;;;2.75;1.02;;;15.50;99.80;;;;;;10400372;28;20455;-70
2023/10/21 12:50:49;;;;;;;1.58;0.90;;;15.50;99.90;;;;;;10405571;28;20476;-68
2023/10/21 12:55:50;;;;;;;3.63;0.80;;;15.80;99.70;;;;;;10396715;28;20446;-69
2023/10/21 13:00:50;;;;;;;4.13;0.90;;;15.80;99.20;;;;;;10394146;28;21003;-69
2023/10/21 13:05:52;;;;;;;2.60;0.90;;;15.80;98.90;;;;;;10394675;28;20453;-68
2023/10/21 13:10:56;;;;;;;1.80;0.85;;;16.00;99.00;;;;;;10399474;28;20415;-69
2023/10/21 13:15:57;;;;;;;4.07;1.10;;;15.80;98.80;;;;;;10398550;28;20399;-69
2023/10/21 13:20:57;;;;;;;2.57;0.87;;;16.00;98.90;;;;;;10402073;28;20422;-69
2023/10/21 13:25:58;;;;;;;3.42;1.00;;;16.00;98.20;;;;;;10392874;28;20418;-69
2023/10/21 13:30:58;;;;;;;2.33;0.70;;;16.00;98.00;;;;;;10395787;28;20461;-69
2023/10/21 13:35:59;;;;;;;4.03;1.03;;;15.90;97.90;;;;;;10406807;28;20418;-69
2023/10/21 13:41:00;;;;;;;3.27;0.90;;;15.90;98.00;;;;;;10397358;28;20406;-68
2023/10/21 13:46:05;;;;;;;2.07;0.93;;;15.80;98.20;;;;;;10396197;28;20473;-69
2023/10/21 13:51:09;;;;;;;2.60;0.90;;;16.20;97.90;;;;;;10398632;28;20464;-69
2023/10/21 13:56:09;;;;;;;3.50;0.85;;;16.30;97.20;;;;;;10386221;28;21298;-69
2023/10/21 14:01:12;;;;;;;3.00;0.70;;;16.90;96.40;;;;;;10390722;28;20418;-69
2023/10/21 14:06:13;;;;;;;3.38;0.88;;;16.50;95.80;;;;;;10402089;28;20789;-71
2023/10/21 14:11:14;;;;;;;3.58;0.77;;;16.50;95.30;;;;;;10397085;28;20405;-69
2023/10/21 14:16:14;;;;;;;4.07;0.90;;;16.50;95.10;;;;;;10393324;28;20421;-69
2023/10/21 14:21:15;;;;;;;2.35;0.70;;;16.50;95.20;;;;;;10398158;28;20485;-69
2023/10/21 14:26:16;;;;;;;3.15;0.73;;;16.50;95.00;;;;;;10398500;28;20930;-69
2023/10/21 14:31:27;;;;;;;3.10;0.70;;;16.50;94.90;;;;;;10407353;28;20407;-69
2023/10/21 14:36:28;;;;;;;4.78;1.02;;;16.40;94.90;;;;;;10403093;28;20418;-70
2023/10/21 14:41:28;;;;;;;2.10;0.90;;;16.60;95.20;;;;;;10419512;28;20798;-70
2023/10/21 14:46:29;;;;;;;4.70;0.88;;;16.90;95.10;;;;;;10414616;28;20933;-69
2023/10/21 14:51:30;;;;;;;3.60;1.00;;;16.60;95.10;;;;;;10406384;28;20407;-69
2023/10/21 14:56:31;;;;;;;3.05;0.93;;;16.60;95.20;;;;;;10406279;28;20527;-69
2023/10/21 15:01:32;;;;;;;2.93;1.13;;;16.70;95.30;;;;;;10406727;28;21305;-69
2023/10/21 15:06:32;;;;;;;4.90;1.10;;;16.60;95.30;;;;;;10411365;28;20428;-69
2023/10/21 15:11:33;;;;;;;2.90;0.97;;;16.50;95.50;;;;;;10410746;28;20408;-70
2023/10/21 15:16:33;;;;;;;3.47;1.03;;;16.50;95.70;;;;;;10414274;28;20405;-67
2023/10/21 15:21:34;;;;;;;3.33;0.88;;;16.40;95.60;;;;;;10407503;28;21038;-67
2023/10/21 15:26:34;;;;;;;4.25;1.00;;;16.30;95.70;;;;;;10414945;28;20866;-66
2023/10/21 15:31:35;;;;;;;2.73;1.03;;;17.30;96.10;;;;;;10409537;28;20395;-66
2023/10/21 15:36:36;;;;;;;3.27;1.10;;;16.20;96.00;;;;;;10407509;28;20952;-66
2023/10/21 15:41:36;;;;;;;3.87;1.00;;;16.10;96.10;;;;;;10402254;28;20839;-67
2023/10/21 15:46:37;;;;;;;2.63;0.80;;;16.50;96.30;;;;;;10403872;28;20463;-67
2023/10/21 15:51:37;;;;;;;3.55;1.15;;;16.20;96.40;;;;;;10407986;28;20411;-67
2023/10/21 15:56:38;;;;;;;4.67;1.00;;;16.10;96.50;;;;;;10412424;28;20960;-66
2023/10/21 16:01:39;;;;;;;4.67;1.20;;;16.00;96.60;;;;;;10402378;28;20407;-65
2023/10/21 16:06:40;;;;;;;5.67;1.20;;;16.00;96.70;;;;;;10410331;28;20417;-66
2023/10/21 16:11:40;;;;;;;5.10;1.40;;;16.50;96.90;;;;;;10409525;28;20410;-65
2023/10/21 16:16:41;;;;;;;3.10;1.20;;;16.00;96.80;;;;;;10404262;28;20411;-66
2023/10/21 16:21:44;;;;;;;3.60;1.45;;;16.00;96.90;;;;;;10404050;28;20729;-65
2023/10/21 16:26:44;;;;;;;4.78;1.20;;;15.90;97.00;;;;;;10412182;28;20411;-66
2023/10/21 16:31:45;;;;;;;3.97;1.33;;;15.90;97.00;;;;;;10406509;28;21071;-67
2023/10/21 16:36:45;;;;;;;4.80;1.50;;;15.90;97.00;;;;;;10398085;28;20953;-66
2023/10/21 16:41:46;;;;;;;4.53;1.30;;;15.90;97.00;;;;;;10413862;28;20409;-66
2023/10/21 16:46:46;;;;;;;3.03;1.00;;;15.90;97.00;;;;;;10397901;28;20526;-66
2023/10/21 16:51:47;;;;;;;7.22;1.40;;;15.80;96.90;;;;;;10404002;28;20476;-66
2023/10/21 16:56:48;;;;;;;3.90;1.40;;;15.90;96.90;;;;;;10401016;28;20409;-66
2023/10/21 17:01:49;;;;;;;3.65;1.30;;;15.90;96.80;;;;;;10399614;28;20819;-66
2023/10/21 17:06:49;;;;;;;4.67;1.37;;;16.30;97.00;;;;;;10395740;28;20421;-66
2023/10/21 17:11:51;;;;;;;4.03;1.43;;;15.80;97.10;;;;;;10406842;28;20391;-66
2023/10/21 17:16:51;;;;;;;6.40;1.43;;;15.80;97.20;;;;;;10400231;28;20461;-66
2023/10/21 17:21:53;;;;;;;6.37;1.50;;;15.90;97.20;;;;;;10396325;28;20411;-67
2023/10/21 17:26:54;;;;;;;4.70;1.70;;;16.30;97.40;;;;;;10400610;28;20410;-66
2023/10/21 17:31:55;;;;;;;6.75;2.03;;;15.80;97.30;;;;;;10395911;28;20403;-68
2023/10/21 17:36:56;;;;;;;5.90;1.40;;;15.70;97.40;;;;;;10419176;28;20461;-67
2023/10/21 17:41:56;;;;;;;4.07;1.30;;;15.80;97.40;;;;;;10415606;28;20852;-67
2023/10/21 17:46:57;;;;;;;4.17;1.37;;;16.10;97.70;;;;;;10395403;28;20504;-67
2023/10/21 17:51:58;;;;;;;6.82;2.25;;;15.70;97.60;;;;;;10398898;28;20399;-67
2023/10/21 17:56:59;;;;;;;4.50;1.40;;;15.70;97.70;;;;;;10400325;28;20419;-70
2023/10/21 18:01:59;;;;;;;4.93;1.40;;;15.70;97.70;;;;;;10393181;28;20422;-66
2023/10/21 18:07:00;;;;;;;4.50;1.42;;;16.00;97.80;;;;;;10390764;28;20425;-67
2023/10/21 18:12:01;;;;;;;4.97;1.30;;;15.60;97.60;;;;;;10396657;28;20414;-67
2023/10/21 18:17:04;;;;;;;5.63;1.70;;;15.60;97.60;;;;;;10408815;28;20402;-67
2023/10/21 18:22:05;;;;;;;5.13;1.27;;;15.60;97.60;;;;;;10424467;28;20458;-67
2023/10/21 18:27:07;;;;;;;3.83;1.38;;;15.60;97.70;;;;;;10404566;28;21968;-67
2023/10/21 18:32:08;;;;;;;4.07;1.53;;;15.60;97.70;;;;;;10407147;28;20419;-67
2023/10/21 18:37:08;;;;;;;7.38;1.63;;;15.50;97.60;;;;;;10408724;28;20398;-67
2023/10/21 18:42:10;;;;;;;4.43;1.50;;;15.70;97.60;;;;;;10416038;28;20410;-67
2023/10/21 18:47:11;;;;;;;5.82;1.70;;;15.50;97.50;;;;;;10404324;28;20423;-67
2023/10/21 18:52:15;;;;;;;5.55;1.30;;;15.50;97.50;;;;;;10408582;28;20444;-67
2023/10/21 18:57:19;;;;;;;4.20;1.35;;;15.50;97.50;;;;;;10403193;28;20444;-67
2023/10/21 19:02:20;;;;;;;3.22;1.33;;;15.50;97.60;;;;;;10412999;28;20403;-67
2023/10/21 19:07:21;;;;;;;4.00;1.50;;;15.50;97.60;;;;;;10395348;28;20418;-67
2023/10/21 19:12:22;;;;;;;3.40;1.30;;;15.50;97.60;;;;;;10419200;28;20422;-67
2023/10/21 19:17:23;;;;;;;5.73;1.63;;;15.40;97.60;;;;;;10411954;28;20414;-67
2023/10/21 19:22:23;;;;;;;4.88;1.60;;;15.50;97.70;;;;;;10411379;28;20829;-67
2023/10/21 19:27:24;;;;;;;5.50;1.30;;;15.40;97.70;;;;;;10404356;28;20780;-67
2023/10/21 19:32:24;;;;;;;3.57;1.37;;;15.40;97.70;;;;;;10408784;28;20405;-67
2023/10/21 19:37:26;;;;;;;3.63;1.60;;;15.40;97.80;;;;;;10405963;28;20433;-67
2023/10/21 19:42:26;;;;;;;4.65;1.60;;;15.40;97.80;;;;;;10407952;28;20415;-67
2023/10/21 19:47:27;;;;;;;4.33;1.50;;;15.40;97.80;;;;;;10402570;28;20461;-67
2023/10/21 19:52:27;;;;;;;3.60;1.13;;;15.40;97.80;;;;;;10405021;28;20995;-66
2023/10/21 19:57:29;;;;;;;3.65;1.40;;;15.80;97.90;;;;;;10408262;28;20423;-67
2023/10/21 20:02:29;;;;;;;3.70;1.40;;;15.40;97.70;;;;;;10417321;28;20426;-67
2023/10/21 20:07:31;;;;;;;3.40;1.27;;;15.40;97.70;;;;;;10408834;28;20456;-67
2023/10/21 20:12:31;;;;;;;2.78;1.20;;;15.40;97.70;;;;;;10421185;28;20405;-66
2023/10/21 20:17:32;;;;;;;3.87;1.80;;;15.40;97.70;;;;;;10402728;28;20435;-67
2023/10/21 20:22:33;;;;;;;3.38;1.67;;;15.70;97.70;;;;;;10418517;28;20424;-68
2023/10/21 20:27:33;;;;;;;3.83;1.20;;;15.30;97.60;;;;;;10400209;28;20427;-67
2023/10/21 20:32:34;;;;;;;2.67;1.03;;;15.30;97.50;;;;;;10398164;28;20402;-67
2023/10/21 20:37:35;;;;;;;3.27;1.10;;;15.30;97.50;;;;;;10422166;28;20421;-67
2023/10/21 20:42:36;;;;;;;5.00;1.50;;;15.40;97.40;;;;;;10415252;28;20600;-67
2023/10/21 20:47:36;;;;;;;3.53;1.23;;;15.30;97.30;;;;;;10400403;28;20451;-67
2023/10/21 20:52:37;;;;;;;4.32;1.30;;;15.80;97.50;;;;;;10413902;28;20399;-67
2023/10/21 20:57:38;;;;;;;2.97;1.40;;;15.60;97.50;;;;;;10404761;28;20504;-66
2023/10/21 21:02:39;;;;;;;3.70;1.50;;;15.30;97.40;;;;;;10411350;28;20408;-67
2023/10/21 21:07:41;;;;;;;3.50;1.20;;;15.30;97.40;;;;;;10406141;28;20430;-66
2023/10/21 21:12:41;;;;;;;3.80;1.20;;;15.30;97.40;;;;;;10405384;28;21035;-67
2023/10/21 21:17:42;;;;;;;1.85;1.10;;;15.30;97.40;;;;;;10409774;28;20412;-67
2023/10/21 21:22:43;;;;;;;2.10;1.40;;;15.30;97.50;;;;;;10405594;28;20426;-67
2023/10/21 21:27:43;;;;;;;4.30;1.37;;;15.30;97.50;;;;;;10399214;28;20819;-67
2023/10/21 21:32:44;;;;;;;2.47;1.55;;;15.30;97.50;;;;;;10401761;28;20433;-66
2023/10/21 21:37:45;;;;;;;4.83;1.43;;;15.30;97.40;;;;;;10403624;28;20505;-66
2023/10/21 21:42:46;;;;;;;3.45;1.35;;;15.20;97.30;;;;;;10403666;28;20415;-67
2023/10/21 21:47:47;;;;;;;4.53;1.27;;;15.20;97.40;;;;;;10402188;28;20980;-67
2023/10/21 21:52:47;;;;;;;2.83;1.38;;;15.40;97.40;;;;;;10400678;28;20462;-67
2023/10/21 21:57:48;;;;;;;3.30;1.20;;;15.20;97.60;;;;;;10403207;28;20396;-67
2023/10/21 22:02:49;;;;;;;3.60;1.20;;;15.20;97.30;;;;;;10403323;28;20503;-67
2023/10/21 22:07:50;;;;;;;3.80;1.23;;;15.50;97.40;;;;;;10401127;28;21009;-67
2023/10/21 22:12:50;;;;;;;3.45;1.17;;;15.40;97.40;;;;;;10406931;28;20556;-67
2023/10/21 22:17:51;;;;;;;4.60;1.20;;;15.20;97.30;;;;;;10393774;28;20420;-66
2023/10/21 22:22:52;;;;;;;2.97;1.30;;;15.20;97.30;;;;;;10400567;28;20922;-67
2023/10/21 22:27:54;;;;;;;2.88;1.27;;;15.20;97.20;;;;;;10393686;28;20407;-66
2023/10/21 22:32:55;;;;;;;3.25;1.20;;;15.20;97.20;;;;;;10407647;28;20402;-67
2023/10/21 22:37:55;;;;;;;3.05;1.23;;;15.20;97.10;;;;;;10395928;28;20426;-67
2023/10/21 22:42:56;;;;;;;3.40;1.10;;;15.30;97.10;;;;;;10392117;28;20833;-67
2023/10/21 22:47:57;;;;;;;4.67;1.10;;;15.20;97.00;;;;;;10396309;28;20450;-66
2023/10/21 22:52:57;;;;;;;4.97;1.00;;;15.20;96.90;;;;;;10399891;28;20411;-66
2023/10/21 22:57:59;;;;;;;4.13;1.40;;;15.20;96.80;;;;;;10397189;28;20426;-67
2023/10/21 23:03:00;;;;;;;4.30;1.20;;;15.20;96.70;;;;;;10417707;28;20861;-67
2023/10/21 23:08:00;;;;;;;5.03;1.35;;;15.20;96.60;;;;;;10400242;28;20923;-67
2023/10/21 23:13:01;;;;;;;3.67;1.00;;;15.20;96.60;;;;;;10401680;28;20455;-67
2023/10/21 23:18:02;;;;;;;3.67;1.10;;;14.60;96.30;;;;;;10409132;28;20411;-66
2023/10/21 23:23:04;;;;;;;3.85;1.08;;;15.20;96.40;;;;;;10400817;28;20907;-67
2023/10/21 23:28:05;;;;;;;2.70;1.10;;;15.20;96.50;;;;;;10403433;28;20449;-67
2023/10/21 23:33:07;;;;;;;3.72;1.20;;;15.20;96.40;;;;;;10410948;28;20402;-66
2023/10/21 23:38:08;;;;;;;3.20;1.10;;;15.40;96.60;;;;;;10406351;28;20397;-67
2023/10/21 23:43:11;;;;;;;5.20;1.20;;;15.20;96.50;;;;;;10402612;28;20426;-66
2023/10/21 23:48:12;;;;;;;3.27;1.20;;;15.20;96.40;;;;;;10392516;28;20584;-66
2023/10/21 23:53:12;;;;;;;4.15;1.50;;;15.20;96.50;;;;;;10407581;28;20651;-66
2023/10/21 23:58:13;;;;;;;3.57;1.10;;;15.20;96.50;;;;;;10398200;28;20411;-67
